Antonello — IKVS — position and weather

sailwx.info

Track history (hours):
 
Tides and Currents Weather Stations Pressure Air Temp Water Temp Dewpoint Dewpoint Depression Visibility Wind Speed Wind Dir Waves Ship Positions

Antonello

Last reported at 2017-Oct-27 05:06 UTC. Time now 2017-Nov-23 18:52 UTC.
Position N 39°05' E 017°08'.
Warning: this ship's position is 27 days out of date.

Length 70 m; draft 3.2 m.

Type: Ship. MMSI: 247422000.

Date/timePositionNaut miles runAvg speedWind from/ knotsBaromVisibWave heightAir tempDewpointWater temp
2017-Oct-27 05:06N 39°05' E 017°08'0 4.1
2017-Oct-27 05:00N 39°05' E 017°08'38 1.7
2017-Oct-26 06:31N 38°34' E 016°39'56 5.9
2017-Oct-25 21:05N 37°53' E 015°52'1 7.5
2017-Oct-25 21:00N 37°53' E 015°51'4 7.5
2017-Oct-25 20:30N 37°53' E 015°46'4 7.4
2017-Oct-25 20:00N 37°54' E 015°42'4 7.3
2017-Oct-25 19:30N 37°56' E 015°38'4 8.5
2017-Oct-25 19:00N 38°00' E 015°36'4 8.6
2017-Oct-25 18:30N 38°05' E 015°35'5 9.9
2017-Oct-25 18:00N 38°09' E 015°35'5 9.8
2017-Oct-25 17:28N 38°15' E 015°36'4 8.0
2017-Oct-25 16:58N 38°17' E 015°41'4 9.6
2017-Oct-25 16:30N 38°19' E 015°36'5 9.3
2017-Oct-25 16:00N 38°22' E 015°31'4 8.8
2017-Oct-25 15:30N 38°23' E 015°25'4 8.6
2017-Oct-25 15:00N 38°24' E 015°20'4 8.2
2017-Oct-25 14:30N 38°25' E 015°15'4 8.1
2017-Oct-25 14:00N 38°26' E 015°10'4 7.8
2017-Oct-25 13:29N 38°27' E 015°05'4 8.1
2017-Oct-25 13:00N 38°27' E 014°60'2 0.3
2017-Oct-25 06:12N 38°28' E 014°58'0 0.0
2017-Oct-25 03:23N 38°28' E 014°58'0 0.0
2017-Oct-25 01:09N 38°28' E 014°58'0 0.0
2017-Oct-25 00:57N 38°28' E 014°58'0 0.0
2017-Oct-25 00:27N 38°28' E 014°58'0 0.0
2017-Oct-24 23:57N 38°28' E 014°58'0 0.0
2017-Oct-24 23:26N 38°28' E 014°58'0 0.0
2017-Oct-24 22:56N 38°28' E 014°58'0 0.0
2017-Oct-24 22:20N 38°28' E 014°58'0 0.1
2017-Oct-24 21:49N 38°28' E 014°58'0 0.0
2017-Oct-24 21:25N 38°28' E 014°58'0 0.0
2017-Oct-24 19:54N 38°28' E 014°58'0 0.0
2017-Oct-24 19:12N 38°28' E 014°58'0 0.0
2017-Oct-24 19:00N 38°28' E 014°58'0 0.0
2017-Oct-24 18:23N 38°28' E 014°58'0 0.0
2017-Oct-24 17:53N 38°28' E 014°58'0 0.0
2017-Oct-24 17:23N 38°28' E 014°58'0 0.0
2017-Oct-24 16:59N 38°28' E 014°58'0 0.0
2017-Oct-24 16:10N 38°28' E 014°58'0 0.0
2017-Oct-24 14:57N 38°28' E 014°58'0 0.0
2017-Oct-24 14:27N 38°28' E 014°58'0 0.0
2017-Oct-24 13:57N 38°28' E 014°58'0 0.0
2017-Oct-24 13:26N 38°28' E 014°58'0 0.0
2017-Oct-24 12:44N 38°28' E 014°58'0 0.0
2017-Oct-24 11:56N 38°28' E 014°58'0 0.0
2017-Oct-24 11:25N 38°28' E 014°58'0 0.0
2017-Oct-24 10:49N 38°28' E 014°58'0 0.0
2017-Oct-24 10:25N 38°28' E 014°58'0 0.0
2017-Oct-24 09:36N 38°28' E 014°58'0 0.0
2017-Oct-24 06:04N 38°28' E 014°58'0 0.1
2017-Oct-24 05:52N 38°28' E 014°58'0 0.0
2017-Oct-24 05:22N 38°28' E 014°58'0 0.1
2017-Oct-24 04:57N 38°28' E 014°58'0 0.0
2017-Oct-24 01:13N 38°28' E 014°58'0 0.0
2017-Oct-24 00:55N 38°28' E 014°58'0 0.0
2017-Oct-24 00:19N 38°28' E 014°58'0 0.0
2017-Oct-23 23:42N 38°28' E 014°58'0 0.0
2017-Oct-23 23:06N 38°28' E 014°58'0 0.0
2017-Oct-23 23:00N 38°28' E 014°58'0 0.0
2017-Oct-23 22:18N 38°28' E 014°58'0 0.1
2017-Oct-23 21:53N 38°28' E 014°58'0 0.0
2017-Oct-23 21:17N 38°28' E 014°58'0 0.0
2017-Oct-23 20:47N 38°28' E 014°58'0 0.0
2017-Oct-23 20:04N 38°28' E 014°58'0 0.0
2017-Oct-23 18:45N 38°28' E 014°58'0 0.0
2017-Oct-23 18:27N 38°28' E 014°58'0 0.0
2017-Oct-23 17:21N 38°28' E 014°58'0 0.0
2017-Oct-23 15:44N 38°28' E 014°58'0 0.0
2017-Oct-23 14:43N 38°28' E 014°58'0 0.1
2017-Oct-23 14:19N 38°28' E 014°58'0 0.0
2017-Oct-23 13:55N 38°28' E 014°58'0 0.0
2017-Oct-23 13:30N 38°28' E 014°58'0 0.0
2017-Oct-23 13:00N 38°28' E 014°58'0 0.0
2017-Oct-23 12:30N 38°28' E 014°58'0 0.0
2017-Oct-23 11:59N 38°28' E 014°58'0 0.0
2017-Oct-23 10:41N 38°28' E 014°58'0 0.0
2017-Oct-23 08:46N 38°28' E 014°58'0 0.0
2017-Oct-23 07:33N 38°28' E 014°58'0 0.1
2017-Oct-23 07:17N 38°28' E 014°58'0 0.1
2017-Oct-23 06:59N 38°28' E 014°58'0 0.0
2017-Oct-23 06:29N 38°28' E 014°58'0 0.0
2017-Oct-23 05:47N 38°28' E 014°58'0 0.0
2017-Oct-23 05:28N 38°28' E 014°58'0 0.0
2017-Oct-23 04:46N 38°28' E 014°58'0 0.0
2017-Oct-23 04:22N 38°28' E 014°58'0 0.0
2017-Oct-23 03:15N 38°28' E 014°58'0 0.0
2017-Oct-23 00:44N 38°28' E 014°58'0 0.0
2017-Oct-23 00:25N 38°28' E 014°58'0 0.0
2017-Oct-22 23:49N 38°28' E 014°58'0 0.0
2017-Oct-22 23:25N 38°28' E 014°58'0 0.0
2017-Oct-22 19:28N 38°28' E 014°58'0 0.0
2017-Oct-22 18:40N 38°28' E 014°58'0 0.0
2017-Oct-22 18:28N 38°28' E 014°58'0 0.0
2017-Oct-22 17:51N 38°28' E 014°58'0 0.0
2017-Oct-22 17:15N 38°28' E 014°58'0 0.0
2017-Oct-22 16:55N 38°28' E 014°58'1 1.5
2017-Oct-22 16:30N 38°28' E 014°58'4 7.5
2017-Oct-22 16:00N 38°32' E 014°59'18 0.6
2017-Oct-21 12:41N 38°34' E 014°36'1 6.1
2017-Oct-21 12:30N 38°35' E 014°38'2 4.2
2017-Oct-21 12:00N 38°36' E 014°40'2 3.7
2017-Oct-21 11:30N 38°35' E 014°38'3 7.0
2017-Oct-21 11:00N 38°36' E 014°42'25 4.5
2017-Oct-21 05:24N 38°47' E 015°11'2 2.6
2017-Oct-21 04:26N 38°45' E 015°13'1 0.7
2017-Oct-21 02:37N 38°45' E 015°14'0 0.0
2017-Oct-21 02:27N 38°45' E 015°14'1 1.5
2017-Oct-21 01:42N 38°44' E 015°16'2 7.5
2017-Oct-21 01:26N 38°43' E 015°18'3 7.7
2017-Oct-21 00:59N 38°41' E 015°22'4 7.9
2017-Oct-21 00:27N 38°40' E 015°26'4 7.8
2017-Oct-21 00:00N 38°37' E 015°30'4 8.0
2017-Oct-20 23:30N 38°35' E 015°34'6 7.7
2017-Oct-20 22:40N 38°32' E 015°41'2 7.6
2017-Oct-20 22:26N 38°31' E 015°43'3 7.6
2017-Oct-20 21:59N 38°29' E 015°47'4 7.5
2017-Oct-20 21:30N 38°28' E 015°51'3 0.2
2017-Oct-20 05:43N 38°27' E 015°54'3 5.9
2017-Oct-20 05:17N 38°28' E 015°52'3 2.3
2017-Oct-20 03:52N 38°29' E 015°47'3 7.6
2017-Oct-20 03:30N 38°29' E 015°44'5 7.6
2017-Oct-20 02:54N 38°31' E 015°38'3 7.4
2017-Oct-20 02:30N 38°31' E 015°35'4 7.3
2017-Oct-20 02:00N 38°32' E 015°30'4 7.0
2017-Oct-20 01:30N 38°33' E 015°26'4 7.2
2017-Oct-20 01:00N 38°34' E 015°22'4 7.3
2017-Oct-20 00:28N 38°35' E 015°17'4 7.6
2017-Oct-20 00:00N 38°36' E 015°12'4 7.5
2017-Oct-19 23:30N 38°37' E 015°08'3 0.1
2017-Oct-19 05:30N 38°38' E 015°05'0 0.2
2017-Oct-19 05:00N 38°38' E 015°05'3 6.9
2017-Oct-19 04:30N 38°39' E 015°09'1 1.0
2017-Oct-19 04:00N 38°39' E 015°10'0 0.0
2017-Oct-19 03:30N 38°39' E 015°10'1 1.4
2017-Oct-19 02:59N 38°38' E 015°10'3 7.0
2017-Oct-19 02:30N 38°37' E 015°14'4 7.2
2017-Oct-19 02:00N 38°36' E 015°19'4 7.5
2017-Oct-19 01:30N 38°34' E 015°23'4 7.7
2017-Oct-19 00:58N 38°33' E 015°28'4 7.8
2017-Oct-19 00:27N 38°32' E 015°33'4 7.6
2017-Oct-18 23:59N 38°31' E 015°37'4 7.6
2017-Oct-18 23:28N 38°30' E 015°42'3 7.4
2017-Oct-18 23:00N 38°29' E 015°46'2 0.2
2017-Oct-18 12:19N 38°27' E 015°48'3 8.8
2017-Oct-18 11:56N 38°26' E 015°44'4 8.6
2017-Oct-18 11:30N 38°26' E 015°39'4 8.8
2017-Oct-18 11:01N 38°26' E 015°33'5 9.2
2017-Oct-18 10:30N 38°26' E 015°27'23 1.7
2017-Oct-17 21:24N 38°25' E 014°58'1 1.9
2017-Oct-17 21:00N 38°25' E 014°59'4 8.2
2017-Oct-17 20:30N 38°25' E 015°04'4 8.2
2017-Oct-17 20:00N 38°25' E 015°10'4 8.1
2017-Oct-17 19:30N 38°25' E 015°15'4 8.2
2017-Oct-17 19:00N 38°25' E 015°20'4 8.0
2017-Oct-17 18:30N 38°25' E 015°25'4 7.6
2017-Oct-17 18:00N 38°25' E 015°30'4 7.8
2017-Oct-17 17:30N 38°26' E 015°35'4 7.8
2017-Oct-17 17:00N 38°26' E 015°40'4 7.8
2017-Oct-17 16:29N 38°26' E 015°45'4 7.7
2017-Oct-17 15:58N 38°27' E 015°50'3 1.6
2017-Oct-17 13:53N 38°27' E 015°54'24 2.8
2017-Oct-17 05:25N 38°41' E 015°30'  
Track history (hours):
 
Tides and Currents Weather Stations Pressure Air Temp Water Temp Dewpoint Dewpoint Depression Visibility Wind Speed Wind Dir Waves Ship Positions

Antonello

Last reported at 2017-Oct-27 05:06 UTC. Time now 2017-Nov-23 18:52 UTC.
Position N 39°05' E 017°08'.
Warning: this ship's position is 27 days out of date.

Length 70 m; draft 3.2 m.

Type: Ship. MMSI: 247422000.

Date/timePositionNaut miles runAvg speedWind from/ knotsBaromVisibWave heightAir tempDewpointWater temp
2017-Oct-27 05:06N 39°05' E 017°08'0 4.1
2017-Oct-27 05:00N 39°05' E 017°08'38 1.7
2017-Oct-26 06:31N 38°34' E 016°39'56 5.9
2017-Oct-25 21:05N 37°53' E 015°52'1 7.5
2017-Oct-25 21:00N 37°53' E 015°51'4 7.5
2017-Oct-25 20:30N 37°53' E 015°46'4 7.4
2017-Oct-25 20:00N 37°54' E 015°42'4 7.3
2017-Oct-25 19:30N 37°56' E 015°38'4 8.5
2017-Oct-25 19:00N 38°00' E 015°36'4 8.6
2017-Oct-25 18:30N 38°05' E 015°35'5 9.9
2017-Oct-25 18:00N 38°09' E 015°35'5 9.8
2017-Oct-25 17:28N 38°15' E 015°36'4 8.0
2017-Oct-25 16:58N 38°17' E 015°41'4 9.6
2017-Oct-25 16:30N 38°19' E 015°36'5 9.3
2017-Oct-25 16:00N 38°22' E 015°31'4 8.8
2017-Oct-25 15:30N 38°23' E 015°25'4 8.6
2017-Oct-25 15:00N 38°24' E 015°20'4 8.2
2017-Oct-25 14:30N 38°25' E 015°15'4 8.1
2017-Oct-25 14:00N 38°26' E 015°10'4 7.8
2017-Oct-25 13:29N 38°27' E 015°05'4 8.1
2017-Oct-25 13:00N 38°27' E 014°60'2 0.3
2017-Oct-25 06:12N 38°28' E 014°58'0 0.0
2017-Oct-25 03:23N 38°28' E 014°58'0 0.0
2017-Oct-25 01:09N 38°28' E 014°58'0 0.0
2017-Oct-25 00:57N 38°28' E 014°58'0 0.0
2017-Oct-25 00:27N 38°28' E 014°58'0 0.0
2017-Oct-24 23:57N 38°28' E 014°58'0 0.0
2017-Oct-24 23:26N 38°28' E 014°58'0 0.0
2017-Oct-24 22:56N 38°28' E 014°58'0 0.0
2017-Oct-24 22:20N 38°28' E 014°58'0 0.1
2017-Oct-24 21:49N 38°28' E 014°58'0 0.0
2017-Oct-24 21:25N 38°28' E 014°58'0 0.0
2017-Oct-24 19:54N 38°28' E 014°58'0 0.0
2017-Oct-24 19:12N 38°28' E 014°58'0 0.0
2017-Oct-24 19:00N 38°28' E 014°58'0 0.0
2017-Oct-24 18:23N 38°28' E 014°58'0 0.0
2017-Oct-24 17:53N 38°28' E 014°58'0 0.0
2017-Oct-24 17:23N 38°28' E 014°58'0 0.0
2017-Oct-24 16:59N 38°28' E 014°58'0 0.0
2017-Oct-24 16:10N 38°28' E 014°58'0 0.0
2017-Oct-24 14:57N 38°28' E 014°58'0 0.0
2017-Oct-24 14:27N 38°28' E 014°58'0 0.0
2017-Oct-24 13:57N 38°28' E 014°58'0 0.0
2017-Oct-24 13:26N 38°28' E 014°58'0 0.0
2017-Oct-24 12:44N 38°28' E 014°58'0 0.0
2017-Oct-24 11:56N 38°28' E 014°58'0 0.0
2017-Oct-24 11:25N 38°28' E 014°58'0 0.0
2017-Oct-24 10:49N 38°28' E 014°58'0 0.0
2017-Oct-24 10:25N 38°28' E 014°58'0 0.0
2017-Oct-24 09:36N 38°28' E 014°58'0 0.0
2017-Oct-24 06:04N 38°28' E 014°58'0 0.1
2017-Oct-24 05:52N 38°28' E 014°58'0 0.0
2017-Oct-24 05:22N 38°28' E 014°58'0 0.1
2017-Oct-24 04:57N 38°28' E 014°58'0 0.0
2017-Oct-24 01:13N 38°28' E 014°58'0 0.0
2017-Oct-24 00:55N 38°28' E 014°58'0 0.0
2017-Oct-24 00:19N 38°28' E 014°58'0 0.0
2017-Oct-23 23:42N 38°28' E 014°58'0 0.0
2017-Oct-23 23:06N 38°28' E 014°58'0 0.0
2017-Oct-23 23:00N 38°28' E 014°58'0 0.0
2017-Oct-23 22:18N 38°28' E 014°58'0 0.1
2017-Oct-23 21:53N 38°28' E 014°58'0 0.0
2017-Oct-23 21:17N 38°28' E 014°58'0 0.0
2017-Oct-23 20:47N 38°28' E 014°58'0 0.0
2017-Oct-23 20:04N 38°28' E 014°58'0 0.0
2017-Oct-23 18:45N 38°28' E 014°58'0 0.0
2017-Oct-23 18:27N 38°28' E 014°58'0 0.0
2017-Oct-23 17:21N 38°28' E 014°58'0 0.0
2017-Oct-23 15:44N 38°28' E 014°58'0 0.0
2017-Oct-23 14:43N 38°28' E 014°58'0 0.1
2017-Oct-23 14:19N 38°28' E 014°58'0 0.0
2017-Oct-23 13:55N 38°28' E 014°58'0 0.0
2017-Oct-23 13:30N 38°28' E 014°58'0 0.0
2017-Oct-23 13:00N 38°28' E 014°58'0 0.0
2017-Oct-23 12:30N 38°28' E 014°58'0 0.0
2017-Oct-23 11:59N 38°28' E 014°58'0 0.0
2017-Oct-23 10:41N 38°28' E 014°58'0 0.0
2017-Oct-23 08:46N 38°28' E 014°58'0 0.0
2017-Oct-23 07:33N 38°28' E 014°58'0 0.1
2017-Oct-23 07:17N 38°28' E 014°58'0 0.1
2017-Oct-23 06:59N 38°28' E 014°58'0 0.0
2017-Oct-23 06:29N 38°28' E 014°58'0 0.0
2017-Oct-23 05:47N 38°28' E 014°58'0 0.0
2017-Oct-23 05:28N 38°28' E 014°58'0 0.0
2017-Oct-23 04:46N 38°28' E 014°58'0 0.0
2017-Oct-23 04:22N 38°28' E 014°58'0 0.0
2017-Oct-23 03:15N 38°28' E 014°58'0 0.0
2017-Oct-23 00:44N 38°28' E 014°58'0 0.0
2017-Oct-23 00:25N 38°28' E 014°58'0 0.0
2017-Oct-22 23:49N 38°28' E 014°58'0 0.0
2017-Oct-22 23:25N 38°28' E 014°58'0 0.0
2017-Oct-22 19:28N 38°28' E 014°58'0 0.0
2017-Oct-22 18:40N 38°28' E 014°58'0 0.0
2017-Oct-22 18:28N 38°28' E 014°58'0 0.0
2017-Oct-22 17:51N 38°28' E 014°58'0 0.0
2017-Oct-22 17:15N 38°28' E 014°58'0 0.0
2017-Oct-22 16:55N 38°28' E 014°58'1 1.5
2017-Oct-22 16:30N 38°28' E 014°58'4 7.5
2017-Oct-22 16:00N 38°32' E 014°59'18 0.6
2017-Oct-21 12:41N 38°34' E 014°36'1 6.1
2017-Oct-21 12:30N 38°35' E 014°38'2 4.2
2017-Oct-21 12:00N 38°36' E 014°40'2 3.7
2017-Oct-21 11:30N 38°35' E 014°38'3 7.0
2017-Oct-21 11:00N 38°36' E 014°42'25 4.5
2017-Oct-21 05:24N 38°47' E 015°11'2 2.6
2017-Oct-21 04:26N 38°45' E 015°13'1 0.7
2017-Oct-21 02:37N 38°45' E 015°14'0 0.0
2017-Oct-21 02:27N 38°45' E 015°14'1 1.5
2017-Oct-21 01:42N 38°44' E 015°16'2 7.5
2017-Oct-21 01:26N 38°43' E 015°18'3 7.7
2017-Oct-21 00:59N 38°41' E 015°22'4 7.9
2017-Oct-21 00:27N 38°40' E 015°26'4 7.8
2017-Oct-21 00:00N 38°37' E 015°30'4 8.0
2017-Oct-20 23:30N 38°35' E 015°34'6 7.7
2017-Oct-20 22:40N 38°32' E 015°41'2 7.6
2017-Oct-20 22:26N 38°31' E 015°43'3 7.6
2017-Oct-20 21:59N 38°29' E 015°47'4 7.5
2017-Oct-20 21:30N 38°28' E 015°51'3 0.2
2017-Oct-20 05:43N 38°27' E 015°54'3 5.9
2017-Oct-20 05:17N 38°28' E 015°52'3 2.3
2017-Oct-20 03:52N 38°29' E 015°47'3 7.6
2017-Oct-20 03:30N 38°29' E 015°44'5 7.6
2017-Oct-20 02:54N 38°31' E 015°38'3 7.4
2017-Oct-20 02:30N 38°31' E 015°35'4 7.3
2017-Oct-20 02:00N 38°32' E 015°30'4 7.0
2017-Oct-20 01:30N 38°33' E 015°26'4 7.2
2017-Oct-20 01:00N 38°34' E 015°22'4 7.3
2017-Oct-20 00:28N 38°35' E 015°17'4 7.6
2017-Oct-20 00:00N 38°36' E 015°12'4 7.5
2017-Oct-19 23:30N 38°37' E 015°08'3 0.1
2017-Oct-19 05:30N 38°38' E 015°05'0 0.2
2017-Oct-19 05:00N 38°38' E 015°05'3 6.9
2017-Oct-19 04:30N 38°39' E 015°09'1 1.0
2017-Oct-19 04:00N 38°39' E 015°10'0 0.0
2017-Oct-19 03:30N 38°39' E 015°10'1 1.4
2017-Oct-19 02:59N 38°38' E 015°10'3 7.0
2017-Oct-19 02:30N 38°37' E 015°14'4 7.2
2017-Oct-19 02:00N 38°36' E 015°19'4 7.5
2017-Oct-19 01:30N 38°34' E 015°23'4 7.7
2017-Oct-19 00:58N 38°33' E 015°28'4 7.8
2017-Oct-19 00:27N 38°32' E 015°33'4 7.6
2017-Oct-18 23:59N 38°31' E 015°37'4 7.6
2017-Oct-18 23:28N 38°30' E 015°42'3 7.4
2017-Oct-18 23:00N 38°29' E 015°46'2 0.2
2017-Oct-18 12:19N 38°27' E 015°48'3 8.8
2017-Oct-18 11:56N 38°26' E 015°44'4 8.6
2017-Oct-18 11:30N 38°26' E 015°39'4 8.8
2017-Oct-18 11:01N 38°26' E 015°33'5 9.2
2017-Oct-18 10:30N 38°26' E 015°27'23 1.7
2017-Oct-17 21:24N 38°25' E 014°58'1 1.9
2017-Oct-17 21:00N 38°25' E 014°59'4 8.2
2017-Oct-17 20:30N 38°25' E 015°04'4 8.2
2017-Oct-17 20:00N 38°25' E 015°10'4 8.1
2017-Oct-17 19:30N 38°25' E 015°15'4 8.2
2017-Oct-17 19:00N 38°25' E 015°20'4 8.0
2017-Oct-17 18:30N 38°25' E 015°25'4 7.6
2017-Oct-17 18:00N 38°25' E 015°30'4 7.8
2017-Oct-17 17:30N 38°26' E 015°35'4 7.8
2017-Oct-17 17:00N 38°26' E 015°40'4 7.8
2017-Oct-17 16:29N 38°26' E 015°45'4 7.7
2017-Oct-17 15:58N 38°27' E 015°50'3 1.6
2017-Oct-17 13:53N 38°27' E 015°54'24 2.8
2017-Oct-17 05:25N 38°41' E 015°30'  

Dump ship's entire track history